Time;durP1;ratioP1;P1;durP2;ratioP2;P2;SDS_P1;SDS_P2;PMS_P1;PMS_P2;Temp;Humidity;BMP_temperature;BMP_pressure;BME280_temperature;BME280_humidity;BME280_pressure;Samples;Min_cycle;Max_cycle;Signal;HPM_P1;HPM_P2
2024/02/15 00:01:25;;;;;;;;;;;8.70;99.90;;;;;;5034022;28;20429;-64
2024/02/15 00:03:57;;;;;;;;;;;8.70;99.90;;;;;;5028871;28;19921;-64
2024/02/15 00:06:29;;;;;;;;;;;8.70;99.90;;;;;;5033314;28;20389;-64
2024/02/15 00:09:00;;;;;;;;;;;8.70;99.90;;;;;;5032737;28;19921;-64
2024/02/15 00:11:33;;;;;;;;;;;8.70;99.90;;;;;;5033750;28;20389;-64
2024/02/15 00:14:05;;;;;;;;;;;8.70;99.90;;;;;;5032217;28;19921;-64
2024/02/15 00:16:36;;;;;;;;;;;8.70;99.90;;;;;;5033324;28;19953;-64
2024/02/15 00:19:08;;;;;;;;;;;8.80;99.90;;;;;;5031285;28;19921;-64
2024/02/15 00:21:36;;;;;;;;;;;8.80;99.90;;;;;;5025848;28;19964;-64
2024/02/15 00:24:07;;;;;;;;;;;8.80;99.90;;;;;;5007369;28;19928;-64
2024/02/15 00:26:39;;;;;;;;;;;8.70;99.90;;;;;;5031817;28;19947;-64
2024/02/15 00:29:11;;;;;;;;;;;8.70;99.90;;;;;;5003533;28;19932;-64
2024/02/15 00:31:42;;;;;;;;;;;8.70;99.90;;;;;;5033498;28;19932;-64
2024/02/15 00:34:09;;;;;;;;;;;8.60;99.90;;;;;;5032854;28;19921;-64
2024/02/15 00:36:44;;;;;;;;;;;8.60;99.90;;;;;;5031393;28;19932;-64
2024/02/15 00:39:18;;;;;;;;;;;8.60;99.90;;;;;;5033241;28;19921;-64
2024/02/15 00:41:49;;;;;;;;;;;8.50;99.90;;;;;;5015493;28;19921;-64
2024/02/15 00:44:21;;;;;;;;;;;8.50;99.90;;;;;;5033140;28;19925;-64
2024/02/15 00:46:53;;;;;;;;;;;8.40;99.90;;;;;;5029303;28;19925;-64
2024/02/15 00:49:20;;;;;;;;;;;8.40;99.90;;;;;;5033152;28;20378;-64
2024/02/15 00:51:52;;;;;;;;;;;8.30;99.90;;;;;;5033083;28;20459;-64
2024/02/15 00:54:23;;;;;;;;;;;8.30;99.90;;;;;;5031522;28;19925;-64
2024/02/15 00:56:55;;;;;;;;;;;8.30;99.90;;;;;;5000747;28;19956;-64
2024/02/15 00:59:27;;;;;;;;;;;8.20;99.90;;;;;;5033042;28;19921;-64
2024/02/15 01:01:59;;;;;;;;;;;8.10;99.90;;;;;;5031779;28;19921;-64
2024/02/15 01:04:26;;;;;;;;;;;8.10;99.90;;;;;;5032765;28;19968;-64
2024/02/15 01:06:57;;;;;;;;;;;8.00;99.90;;;;;;5032426;28;19921;-64
2024/02/15 01:09:29;;;;;;;;;;;8.00;99.90;;;;;;5017110;28;19921;-64
2024/02/15 01:12:03;;;;;;;;;;;8.00;99.90;;;;;;5008345;28;19922;-64
2024/02/15 01:14:30;;;;;;;;;;;8.00;99.90;;;;;;5032235;28;19975;-64
2024/02/15 01:17:02;;;;;;;;;;;8.00;99.90;;;;;;5030949;28;20030;-64
2024/02/15 01:19:33;;;;;;;;;;;8.00;99.90;;;;;;5030745;28;19983;-63
2024/02/15 01:22:06;;;;;;;;;;;8.00;99.90;;;;;;5032285;28;20027;-64
2024/02/15 01:24:38;;;;;;;;;;;8.00;99.90;;;;;;5029659;28;20385;-64
2024/02/15 01:27:09;;;;;;;;;;;8.00;99.90;;;;;;5013925;28;19925;-64
2024/02/15 01:29:42;;;;;;;;;;;8.00;99.90;;;;;;5032271;28;19925;-63
2024/02/15 01:32:14;;;;;;;;;;;8.00;99.90;;;;;;5032376;28;19928;-64
2024/02/15 01:34:45;;;;;;;;;;;8.00;99.90;;;;;;5006882;28;19921;-65
2024/02/15 01:37:12;;;;;;;;;;;7.90;99.90;;;;;;5034098;28;19936;-64
2024/02/15 01:39:44;;;;;;;;;;;7.90;99.90;;;;;;5031975;28;20363;-64
2024/02/15 01:42:14;;;;;;;;;;;7.90;99.90;;;;;;5032207;28;20024;-64
2024/02/15 01:44:47;;;;;;;;;;;7.80;99.90;;;;;;5030736;28;20435;-64
2024/02/15 01:47:19;;;;;;;;;;;7.90;99.90;;;;;;5028747;28;19928;-64
2024/02/15 01:49:52;;;;;;;;;;;7.90;99.90;;;;;;5031944;28;19975;-64
2024/02/15 01:52:19;;;;;;;;;;;7.90;99.90;;;;;;5027519;28;20341;-64
2024/02/15 01:54:46;;;;;;;;;;;7.80;99.90;;;;;;5029702;28;19921;-64
2024/02/15 01:57:18;;;;;;;;;;;7.70;99.90;;;;;;5031454;28;19925;-64
2024/02/15 01:59:54;;;;;;;;;;;7.70;99.90;;;;;;5010887;28;20567;-64
2024/02/15 02:02:27;;;;;;;;;;;7.60;99.90;;;;;;5031120;28;20020;-64
2024/02/15 02:04:59;;;;;;;;;;;7.50;99.90;;;;;;5029061;28;20010;-64
2024/02/15 02:07:31;;;;;;;;;;;7.50;99.90;;;;;;5030740;28;19921;-64
2024/02/15 02:10:03;;;;;;;;;;;7.40;99.90;;;;;;5029845;28;20004;-64
2024/02/15 02:12:35;;;;;;;;;;;7.40;99.90;;;;;;5029763;28;19927;-64
2024/02/15 02:15:07;;;;;;;;;;;7.40;99.90;;;;;;5009302;28;19925;-64
2024/02/15 02:17:35;;;;;;;;;;;7.30;99.90;;;;;;5030599;28;19927;-64
2024/02/15 02:20:08;;;;;;;;;;;7.30;99.90;;;;;;5029667;28;19921;-64
2024/02/15 02:22:40;;;;;;;;;;;7.30;99.90;;;;;;5013103;28;19925;-64
2024/02/15 02:25:13;;;;;;;;;;;7.20;99.90;;;;;;5030709;28;19925;-64
2024/02/15 02:27:45;;;;;;;;;;;7.20;99.90;;;;;;5010158;28;20020;-64
2024/02/15 02:30:21;;;;;;;;;;;7.20;99.90;;;;;;5030310;28;19925;-64
2024/02/15 02:32:53;;;;;;;;;;;7.10;99.90;;;;;;5030843;28;20372;-64
2024/02/15 02:35:25;;;;;;;;;;;7.10;99.90;;;;;;5005411;28;19928;-64
2024/02/15 02:37:57;;;;;;;;;;;7.00;99.90;;;;;;5029767;28;19978;-64
2024/02/15 02:40:29;;;;;;;;;;;7.10;99.90;;;;;;5030792;28;19927;-63
2024/02/15 02:43:00;;;;;;;;;;;7.00;99.90;;;;;;5030729;28;20431;-64
2024/02/15 02:45:33;;;;;;;;;;;6.90;99.90;;;;;;5028034;28;20127;-63
2024/02/15 02:48:04;;;;;;;;;;;6.80;99.90;;;;;;5012453;28;19920;-64
2024/02/15 02:50:31;;;;;;;;;;;6.80;99.90;;;;;;5030515;28;19932;-64
2024/02/15 02:53:03;;;;;;;;;;;6.80;99.90;;;;;;5010007;28;19936;-63
2024/02/15 02:55:35;;;;;;;;;;;6.70;99.90;;;;;;5030052;28;19979;-64
2024/02/15 02:58:07;;;;;;;;;;;6.60;99.90;;;;;;5025764;28;20373;-64
2024/02/15 03:00:39;;;;;;;;;;;6.70;99.90;;;;;;5029072;28;19921;-64
2024/02/15 03:03:11;;;;;;;;;;;6.60;99.90;;;;;;5029189;28;19921;-64
2024/02/15 03:05:43;;;;;;;;;;;6.60;99.90;;;;;;5030076;28;19928;-64
2024/02/15 03:08:17;;;;;;;;;;;6.60;99.90;;;;;;5029245;28;20018;-63
2024/02/15 03:10:49;;;;;;;;;;;6.50;99.90;;;;;;5028702;28;20436;-64
2024/02/15 03:13:20;;;;;;;;;;;6.60;99.90;;;;;;5030236;28;19963;-64
2024/02/15 03:15:52;;;;;;;;;;;6.60;99.90;;;;;;5012189;28;19924;-64
2024/02/15 03:18:24;;;;;;;;;;;6.50;99.90;;;;;;5027857;28;19971;-63
2024/02/15 03:20:56;;;;;;;;;;;6.50;99.90;;;;;;5008884;28;19943;-64
2024/02/15 03:23:28;;;;;;;;;;;6.40;99.90;;;;;;5027823;28;19921;-64
2024/02/15 03:25:55;;;;;;;;;;;6.40;99.90;;;;;;5030228;28;20015;-63
2024/02/15 03:28:27;;;;;;;;;;;6.30;99.90;;;;;;5019146;28;20030;-63
2024/02/15 03:31:00;;;;;;;;;;;6.30;99.90;;;;;;5030312;28;20393;-64
2024/02/15 03:33:35;;;;;;;;;;;6.20;99.90;;;;;;5015367;28;20027;-63
2024/02/15 03:36:06;;;;;;;;;;;6.20;99.90;;;;;;5029705;28;19925;-64
2024/02/15 03:38:38;;;;;;;;;;;6.20;99.90;;;;;;5027427;28;19921;-63
2024/02/15 03:41:05;;;;;;;;;;;6.10;99.90;;;;;;5030083;28;20281;-64
2024/02/15 03:43:37;;;;;;;;;;;6.10;99.90;;;;;;5030044;28;20423;-63
2024/02/15 03:46:03;;;;;;;;;;;6.00;99.90;;;;;;5028011;28;19925;-64
2024/02/15 03:48:37;;;;;;;;;;;6.00;99.90;;;;;;5040647;28;19921;-65
2024/02/15 03:51:09;;;;;;;;;;;5.90;99.90;;;;;;5010824;28;20309;-64
2024/02/15 03:53:41;;;;;;;;;;;5.90;99.90;;;;;;5033163;28;19925;-63
2024/02/15 03:56:12;;;;;;;;;;;5.90;99.90;;;;;;5031920;28;19924;-63
2024/02/15 03:58:44;;;;;;;;;;;5.80;99.90;;;;;;5032072;28;19925;-63
2024/02/15 04:01:16;;;;;;;;;;;5.80;99.90;;;;;;5013406;28;19929;-64
2024/02/15 04:03:48;;;;;;;;;;;5.70;99.90;;;;;;5033543;28;19927;-63
2024/02/15 04:06:20;;;;;;;;;;;5.70;99.90;;;;;;5029887;28;19925;-64
2024/02/15 04:08:51;;;;;;;;;;;5.70;99.90;;;;;;5033397;28;19928;-63
2024/02/15 04:11:23;;;;;;;;;;;5.60;99.90;;;;;;5013528;28;20420;-63
2024/02/15 04:13:57;;;;;;;;;;;5.60;99.90;;;;;;5033008;28;19931;-63
2024/02/15 04:16:25;;;;;;;;;;;5.50;99.90;;;;;;5032916;28;19925;-63
2024/02/15 04:18:57;;;;;;;;;;;5.50;99.90;;;;;;5032389;28;20304;-63
2024/02/15 04:21:24;;;;;;;;;;;5.50;99.90;;;;;;5033468;28;19920;-63
2024/02/15 04:23:56;;;;;;;;;;;5.50;99.90;;;;;;5031869;28;19931;-63
2024/02/15 04:26:29;;;;;;;;;;;5.40;99.90;;;;;;5033022;28;20520;-64
2024/02/15 04:29:02;;;;;;;;;;;5.40;99.90;;;;;;5013146;28;19952;-63
2024/02/15 04:31:36;;;;;;;;;;;5.40;99.90;;;;;;5032241;28;19920;-63
2024/02/15 04:34:11;;;;;;;;;;;5.40;99.90;;;;;;5033395;28;19921;-64
2024/02/15 04:36:45;;;;;;;;;;;5.40;99.90;;;;;;5032918;28;20028;-63
2024/02/15 04:39:24;;;;;;;;;;;5.40;99.90;;;;;;5031030;28;20305;-63
2024/02/15 04:41:55;;;;;;;;;;;5.40;99.90;;;;;;5032726;28;20004;-64
2024/02/15 04:44:27;;;;;;;;;;;5.40;99.90;;;;;;5031589;28;19924;-63
2024/02/15 04:46:59;;;;;;;;;;;5.40;99.90;;;;;;5031265;28;19980;-63
2024/02/15 04:49:27;;;;;;;;;;;5.40;99.90;;;;;;5032994;28;19925;-64
2024/02/15 04:52:02;;;;;;;;;;;5.30;99.90;;;;;;5032661;28;19924;-64
2024/02/15 04:54:33;;;;;;;;;;;5.30;99.90;;;;;;5015803;28;19967;-64
2024/02/15 04:57:08;;;;;;;;;;;5.20;99.90;;;;;;5029585;28;20010;-64
2024/02/15 04:59:40;;;;;;;;;;;5.20;99.90;;;;;;5015564;28;19925;-64
2024/02/15 05:02:12;;;;;;;;;;;5.10;99.90;;;;;;5014116;28;20297;-63
2024/02/15 05:04:44;;;;;;;;;;;5.10;99.90;;;;;;5032882;28;20030;-64
2024/02/15 05:07:17;;;;;;;;;;;5.10;99.90;;;;;;5032469;28;20226;-64
2024/02/15 05:09:44;;;;;;;;;;;5.00;99.90;;;;;;5003414;28;19952;-63
2024/02/15 05:12:23;;;;;;;;;;;5.10;99.90;;;;;;5032627;28;19931;-64
2024/02/15 05:14:55;;;;;;;;;;;5.10;99.90;;;;;;5014474;28;20348;-63
2024/02/15 05:17:31;;;;;;;;;;;5.10;99.90;;;;;;5029800;28;19921;-64
2024/02/15 05:20:10;;;;;;;;;;;5.00;99.90;;;;;;5021629;28;20371;-63
2024/02/15 05:22:45;;;;;;;;;;;5.00;99.90;;;;;;5030920;28;20296;-63
2024/02/15 05:25:22;;;;;;;;;;;4.90;99.90;;;;;;5030358;28;20020;-64
2024/02/15 05:27:54;;;;;;;;;;;4.80;99.90;;;;;;5032579;28;19929;-63
2024/02/15 05:30:26;;;;;;;;;;;4.80;99.90;;;;;;5019902;28;19925;-63
2024/02/15 05:32:58;;;;;;;;;;;4.70;99.90;;;;;;5032309;28;19921;-63
2024/02/15 05:35:30;;;;;;;;;;;4.70;99.90;;;;;;5030978;28;19921;-64
2024/02/15 05:38:06;;;;;;;;;;;4.70;99.90;;;;;;5030488;28;19921;-64
2024/02/15 05:40:38;;;;;;;;;;;4.70;99.90;;;;;;5030972;28;19925;-63
2024/02/15 05:43:10;;;;;;;;;;;4.60;99.90;;;;;;5014044;28;19960;-63
2024/02/15 05:45:41;;;;;;;;;;;4.70;99.90;;;;;;5029485;28;19925;-64
2024/02/15 05:48:13;;;;;;;;;;;4.70;99.90;;;;;;5028476;28;19921;-64
2024/02/15 05:50:46;;;;;;;;;;;4.70;99.90;;;;;;4997858;28;19925;-64
2024/02/15 05:53:13;;;;;;;;;;;4.70;99.90;;;;;;5030499;28;19921;-64
2024/02/15 05:55:44;;;;;;;;;;;4.60;99.90;;;;;;5031342;28;19921;-63
2024/02/15 05:58:13;;;;;;;;;;;4.60;99.90;;;;;;5034387;28;19921;-66
2024/02/15 06:00:49;;;;;;;;;;;4.50;99.90;;;;;;5043674;28;19967;-64
2024/02/15 06:03:16;;;;;;;;;;;4.50;99.90;;;;;;5031213;28;19979;-64
2024/02/15 06:05:43;;;;;;;;;;;4.50;99.90;;;;;;5030061;28;20366;-64
2024/02/15 06:08:15;;;;;;;;;;;4.50;99.90;;;;;;5031615;28;19924;-63
2024/02/15 06:10:42;;;;;;;;;;;4.50;99.90;;;;;;5030911;28;20042;-64
2024/02/15 06:13:14;;;;;;;;;;;4.50;99.90;;;;;;5031580;28;19968;-64
2024/02/15 06:15:46;;;;;;;;;;;4.40;99.90;;;;;;5027554;28;20381;-64
2024/02/15 06:18:14;;;;;;;;;;;4.40;99.90;;;;;;5031545;28;19925;-64
2024/02/15 06:20:49;;;;;;;;;;;4.40;99.90;;;;;;5031475;28;19925;-64
2024/02/15 06:23:21;;;;;;;;;;;4.30;99.90;;;;;;5030199;28;19921;-64
2024/02/15 06:25:54;;;;;;;;;;;4.30;99.90;;;;;;5030619;28;19976;-64
2024/02/15 06:39:45;;;;;;;;;;;4.20;99.90;;;;;;5031154;28;19974;-63
2024/02/15 06:42:20;;;;;;;;;;;4.20;99.90;;;;;;5031285;28;19921;-64
2024/02/15 06:44:52;;;;;;;;;;;4.20;99.90;;;;;;5028337;28;19925;-63
2024/02/15 06:47:24;;;;;;;;;;;4.20;99.90;;;;;;5014191;28;19921;-64
2024/02/15 06:49:53;;;;;;;;;;;4.20;99.90;;;;;;5030561;28;19920;-63
2024/02/15 06:52:25;;;;;;;;;;;4.10;99.90;;;;;;5012546;28;19967;-63
2024/02/15 06:54:52;;;;;;;;;;;4.20;99.90;;;;;;5030839;28;20365;-63
2024/02/15 06:57:24;;;;;;;;;;;4.20;99.90;;;;;;5030723;28;19968;-64
2024/02/15 06:59:56;;;;;;;;;;;4.10;99.90;;;;;;5031024;28;19983;-64
2024/02/15 07:02:28;;;;;;;;;;;4.10;99.90;;;;;;5031072;28;19963;-63
2024/02/15 07:05:00;;;;;;;;;;;4.10;99.90;;;;;;5030305;28;19921;-63
2024/02/15 07:07:33;;;;;;;;;;;4.10;99.90;;;;;;5030724;28;20397;-63
2024/02/15 07:10:05;;;;;;;;;;;4.10;99.90;;;;;;5030928;28;19944;-63
2024/02/15 07:12:33;;;;;;;;;;;4.20;99.90;;;;;;5030977;28;19925;-63
2024/02/15 07:15:08;;;;;;;;;;;4.20;99.90;;;;;;5014013;28;20373;-64
2024/02/15 07:17:40;;;;;;;;;;;4.20;99.90;;;;;;5030895;28;19927;-64
2024/02/15 07:20:17;;;;;;;;;;;4.20;99.90;;;;;;5031638;28;20377;-64
2024/02/15 07:22:48;;;;;;;;;;;4.30;99.90;;;;;;5009025;28;19921;-63
2024/02/15 07:25:20;;;;;;;;;;;4.30;99.90;;;;;;5016766;28;19928;-64
2024/02/15 07:27:56;;;;;;;;;;;4.30;99.90;;;;;;5034730;28;19928;-63
2024/02/15 07:30:28;;;;;;;;;;;4.30;99.90;;;;;;5034123;28;19921;-64
2024/02/15 07:33:00;;;;;;;;;;;4.40;99.90;;;;;;5035190;28;19925;-64
2024/02/15 07:35:33;;;;;;;;;;;4.40;99.90;;;;;;5034220;28;19931;-64
2024/02/15 07:38:05;;;;;;;;;;;4.50;99.90;;;;;;5033155;28;19921;-63
2024/02/15 07:40:39;;;;;;;;;;;4.50;99.90;;;;;;5034439;28;19968;-64
2024/02/15 07:43:11;;;;;;;;;;;4.60;99.90;;;;;;5032320;28;20442;-63
2024/02/15 07:45:38;;;;;;;;;;;4.70;99.90;;;;;;5016349;28;19921;-64
2024/02/15 07:48:10;;;;;;;;;;;4.80;99.90;;;;;;5033684;28;19932;-63
2024/02/15 07:50:43;;;;;;;;;;;4.80;99.90;;;;;;5033132;28;20312;-64
2024/02/15 07:53:11;;;;;;;;;;;4.90;99.90;;;;;;5032262;28;19925;-63
2024/02/15 07:55:43;;;;;;;;;;;5.00;99.90;;;;;;5033453;28;20282;-64
2024/02/15 07:58:18;;;;;;;;;;;5.10;99.90;;;;;;5031342;28;19925;-64
2024/02/15 08:00:45;;;;;;;;;;;5.10;99.90;;;;;;5034029;28;19925;-63
2024/02/15 08:03:17;;;;;;;;;;;5.20;99.90;;;;;;5033934;28;19928;-64
2024/02/15 08:05:49;;;;;;;;;;;5.20;99.90;;;;;;5016650;28;19921;-64
2024/02/15 08:08:21;;;;;;;;;;;5.30;99.90;;;;;;5034055;28;19928;-64
2024/02/15 08:10:53;;;;;;;;;;;5.30;99.90;;;;;;5035412;28;19928;-64
2024/02/15 08:13:29;;;;;;;;;;;5.30;99.90;;;;;;5036049;28;19927;-64
2024/02/15 08:16:00;;;;;;;;;;;5.30;99.90;;;;;;5031791;28;20428;-64
2024/02/15 08:18:32;;;;;;;;;;;5.30;99.90;;;;;;5023704;28;20303;-64
2024/02/15 08:21:05;;;;;;;;;;;5.30;99.90;;;;;;5033755;28;19921;-64
2024/02/15 08:23:32;;;;;;;;;;;5.30;99.90;;;;;;5032523;28;19948;-63
2024/02/15 08:26:04;;;;;;;;;;;5.40;99.90;;;;;;5031067;28;19935;-64
2024/02/15 08:28:36;;;;;;;;;;;5.40;99.90;;;;;;5033591;28;20022;-64
2024/02/15 08:31:09;;;;;;;;;;;5.50;99.90;;;;;;4997751;28;19925;-64
2024/02/15 08:33:42;;;;;;;;;;;5.60;99.90;;;;;;5032631;28;19932;-64
2024/02/15 08:36:10;;;;;;;;;;;5.60;99.90;;;;;;5011226;28;20012;-64
2024/02/15 08:38:42;;;;;;;;;;;5.70;99.90;;;;;;5033404;28;20113;-64
2024/02/15 08:41:13;;;;;;;;;;;5.70;99.90;;;;;;5032091;28;20030;-64
2024/02/15 08:43:46;;;;;;;;;;;5.80;99.90;;;;;;5007429;28;19925;-64
2024/02/15 08:46:20;;;;;;;;;;;5.90;99.90;;;;;;5029809;28;19920;-64
2024/02/15 08:48:52;;;;;;;;;;;6.00;99.90;;;;;;5033134;28;20320;-64
2024/02/15 08:51:20;;;;;;;;;;;6.10;99.90;;;;;;5033019;28;20356;-64
2024/02/15 08:53:52;;;;;;;;;;;6.20;99.90;;;;;;5032854;28;19961;-64
2024/02/15 08:56:24;;;;;;;;;;;6.30;99.90;;;;;;5016610;28;19931;-64
2024/02/15 08:58:57;;;;;;;;;;;6.40;99.90;;;;;;5032785;28;19933;-64
2024/02/15 09:01:30;;;;;;;;;;;6.50;99.90;;;;;;5032852;28;20377;-64
2024/02/15 09:04:02;;;;;;;;;;;6.60;99.90;;;;;;5030579;28;19921;-63
2024/02/15 09:06:34;;;;;;;;;;;6.70;99.90;;;;;;5032564;28;19972;-64
2024/02/15 09:09:05;;;;;;;;;;;6.80;99.90;;;;;;5007116;28;19975;-64
2024/02/15 09:11:37;;;;;;;;;;;6.90;99.90;;;;;;5032589;28;19921;-64
2024/02/15 09:14:04;;;;;;;;;;;7.10;99.90;;;;;;5026232;28;19925;-64
2024/02/15 09:16:36;;;;;;;;;;;7.10;99.90;;;;;;5003105;28;19921;-64
2024/02/15 09:19:07;;;;;;;;;;;7.30;99.90;;;;;;5014819;28;19955;-64
2024/02/15 09:21:34;;;;;;;;;;;7.30;99.90;;;;;;5031234;28;19931;-64
2024/02/15 09:24:06;;;;;;;;;;;7.40;99.90;;;;;;5032289;28;20014;-64
2024/02/15 09:26:33;;;;;;;;;;;7.50;99.90;;;;;;5027447;28;20020;-64
2024/02/15 09:29:05;;;;;;;;;;;7.60;99.90;;;;;;5032474;28;19925;-64
2024/02/15 09:31:37;;;;;;;;;;;7.70;99.90;;;;;;5031434;28;19944;-64
2024/02/15 09:34:09;;;;;;;;;;;7.80;99.90;;;;;;5030724;28;19921;-64
2024/02/15 09:36:38;;;;;;;;;;;8.00;99.90;;;;;;5004104;28;19921;-64
2024/02/15 09:39:13;;;;;;;;;;;8.10;99.90;;;;;;5031958;28;19920;-64
2024/02/15 09:41:45;;;;;;;;;;;8.20;99.90;;;;;;5029594;28;20326;-64
2024/02/15 09:44:17;;;;;;;;;;;8.30;99.90;;;;;;5009197;28;19925;-64
2024/02/15 09:46:52;;;;;;;;;;;8.40;99.90;;;;;;5031690;28;19921;-64
2024/02/15 09:49:23;;;;;;;;;;;8.60;99.90;;;;;;5030680;28;19975;-64
2024/02/15 09:51:57;;;;;;;;;;;8.70;99.90;;;;;;5031880;28;20035;-64
2024/02/15 09:54:30;;;;;;;;;;;8.80;99.90;;;;;;5013942;28;20409;-64
2024/02/15 09:57:03;;;;;;;;;;;8.90;99.90;;;;;;5013412;28;20300;-64
2024/02/15 09:59:36;;;;;;;;;;;9.00;99.90;;;;;;5030385;28;19928;-64
2024/02/15 10:02:10;;;;;;;;;;;9.10;99.90;;;;;;5021547;28;19921;-64
2024/02/15 10:04:37;;;;;;;;;;;9.20;99.90;;;;;;5031558;28;20032;-64
2024/02/15 10:07:04;;;;;;;;;;;9.30;99.90;;;;;;5031307;28;20023;-64
2024/02/15 10:09:42;;;;;;;;;;;9.40;99.90;;;;;;5031608;28;20377;-64
2024/02/15 10:12:14;;;;;;;;;;;9.50;99.90;;;;;;5030325;28;19925;-64
2024/02/15 10:14:51;;;;;;;;;;;9.60;99.90;;;;;;5031399;28;20858;-64
2024/02/15 10:17:23;;;;;;;;;;;9.70;99.90;;;;;;5012357;28;19927;-64
2024/02/15 10:20:04;;;;;;;;;;;9.80;99.90;;;;;;5013767;28;20049;-64
2024/02/15 10:22:36;;;;;;;;;;;9.80;99.90;;;;;;5030629;28;19933;-64
2024/02/15 10:25:12;;;;;;;;;;;10.00;99.90;;;;;;5033146;28;19924;-64
2024/02/15 10:27:45;;;;;;;;;;;10.10;99.90;;;;;;5020425;28;20298;-64
2024/02/15 10:30:20;;;;;;;;;;;10.20;99.90;;;;;;5029520;28;19999;-64
2024/02/15 10:32:48;;;;;;;;;;;10.40;99.90;;;;;;5031356;28;20044;-64
2024/02/15 10:35:20;;;;;;;;;;;10.50;99.90;;;;;;5028283;28;19960;-64
2024/02/15 10:37:55;;;;;;;;;;;10.60;99.90;;;;;;5031194;28;19947;-64
2024/02/15 10:40:27;;;;;;;;;;;10.70;99.90;;;;;;5031587;28;19928;-64
2024/02/15 10:42:59;;;;;;;;;;;10.90;99.90;;;;;;5031150;28;20012;-64
2024/02/15 10:45:31;;;;;;;;;;;11.00;99.90;;;;;;5029293;28;19944;-64
2024/02/15 10:48:05;;;;;;;;;;;11.10;99.90;;;;;;5031206;28;19924;-64
2024/02/15 10:50:39;;;;;;;;;;;11.30;99.90;;;;;;5030442;28;20011;-64
2024/02/15 10:53:33;;;;;;;;;;;11.40;99.90;;;;;;5004602;28;19921;-64
2024/02/15 10:56:06;;;;;;;;;;;11.60;99.90;;;;;;5030804;28;19925;-64
2024/02/15 10:58:37;;;;;;;;;;;11.70;99.90;;;;;;5034673;28;19929;-64
2024/02/15 11:01:10;;;;;;;;;;;11.70;99.90;;;;;;5030159;28;19927;-64
2024/02/15 11:03:48;;;;;;;;;;;11.80;99.90;;;;;;5035083;28;19927;-64
2024/02/15 11:06:21;;;;;;;;;;;11.90;99.90;;;;;;5013863;28;19928;-64
2024/02/15 11:08:48;;;;;;;;;;;11.90;99.90;;;;;;5035403;28;20330;-64
2024/02/15 11:11:20;;;;;;;;;;;11.90;99.90;;;;;;5017759;28;19928;-64
2024/02/15 11:14:11;;;;;;;;;;;11.90;99.90;;;;;;5031143;28;20381;-64
2024/02/15 11:16:43;;;;;;;;;;;11.90;99.90;;;;;;5034840;28;19963;-64
2024/02/15 11:19:34;;;;;;;;;;;12.00;99.90;;;;;;5035513;28;19921;-64
2024/02/15 11:22:10;;;;;;;;;;;12.20;99.90;;;;;;5034318;28;20300;-64
2024/02/15 11:24:49;;;;;;;;;;;12.30;99.90;;;;;;5034321;28;20023;-64
2024/02/15 11:27:26;;;;;;;;;;;12.30;99.90;;;;;;5034710;28;19927;-64
2024/02/15 11:30:21;;;;;;;;;;;12.30;99.90;;;;;;5032856;28;19925;-64
2024/02/15 11:32:53;;;;;;;;;;;12.40;99.90;;;;;;5034511;28;19921;-64
2024/02/15 11:35:25;;;;;;;;;;;12.50;99.90;;;;;;5034432;28;19931;-64
2024/02/15 11:37:58;;;;;;;;;;;12.50;99.90;;;;;;5034468;28;19921;-64
2024/02/15 11:40:42;;;;;;;;;;;12.50;99.90;;;;;;5031593;28;19932;-64
2024/02/15 11:43:33;;;;;;;;;;;12.60;99.90;;;;;;5017175;28;19921;-64
2024/02/15 11:46:06;;;;;;;;;;;12.60;99.90;;;;;;5031816;28;19920;-64
2024/02/15 11:48:41;;;;;;;;;;;12.60;99.90;;;;;;5034346;28;20026;-64
2024/02/15 11:51:25;;;;;;;;;;;12.70;99.90;;;;;;5015039;28;20002;-64
2024/02/15 11:53:59;;;;;;;;;;;12.80;99.90;;;;;;5029668;28;19936;-64
2024/02/15 11:56:33;;;;;;;;;;;12.90;99.90;;;;;;5033801;28;20377;-64
2024/02/15 11:59:06;;;;;;;;;;;13.00;99.90;;;;;;5012607;28;19921;-64
2024/02/15 12:18:53;;;;;;;;;;;13.40;99.90;;;;;;5031149;28;20020;-64
2024/02/15 12:21:27;;;;;;;;;;;13.50;99.90;;;;;;5015970;28;19931;-64
2024/02/15 12:23:59;;;;;;;;;;;13.60;99.90;;;;;;5031051;28;19975;-64
2024/02/15 12:26:34;;;;;;;;;;;13.60;99.90;;;;;;5033360;28;19921;-64
2024/02/15 12:29:07;;;;;;;;;;;13.70;99.90;;;;;;5030618;28;19928;-64
2024/02/15 12:31:39;;;;;;;;;;;13.80;99.90;;;;;;5033531;28;20423;-64
2024/02/15 12:34:12;;;;;;;;;;;13.90;99.90;;;;;;5029280;28;19931;-64
2024/02/15 12:36:44;;;;;;;;;;;14.00;99.90;;;;;;5007958;28;20020;-64
2024/02/15 12:39:23;;;;;;;;;;;14.00;99.90;;;;;;5032743;28;20035;-64
2024/02/15 12:41:55;;;;;;;;;;;14.10;99.90;;;;;;5009081;28;20389;-64
2024/02/15 12:44:22;;;;;;;;;;;14.10;99.90;;;;;;5033204;28;20296;-64
2024/02/15 12:46:59;;;;;;;;;;;14.20;99.90;;;;;;5032725;28;19928;-64
2024/02/15 12:49:32;;;;;;;;;;;14.30;99.90;;;;;;5031649;28;19944;-64
2024/02/15 12:52:22;;;;;;;;;;;14.40;99.90;;;;;;5014450;28;20381;-64
2024/02/15 12:55:07;;;;;;;;;;;14.40;99.90;;;;;;5032761;28;19921;-64
2024/02/15 12:57:45;;;;;;;;;;;14.40;99.90;;;;;;5012762;28;19929;-64
2024/02/15 13:00:17;;;;;;;;;;;14.50;99.90;;;;;;5011255;28;19921;-64
2024/02/15 13:02:49;;;;;;;;;;;14.50;99.90;;;;;;5032340;28;20016;-64
2024/02/15 13:05:22;;;;;;;;;;;14.50;99.90;;;;;;5032641;28;19952;-64
2024/02/15 13:07:50;;;;;;;;;;;14.50;99.90;;;;;;5030977;28;19921;-64
2024/02/15 13:10:17;;;;;;;;;;;14.50;99.90;;;;;;5032656;28;19921;-64
2024/02/15 13:12:44;;;;;;;;;;;14.60;99.90;;;;;;5032634;28;20011;-64
2024/02/15 13:15:21;;;;;;;;;;;14.70;99.90;;;;;;5026770;28;19921;-64
2024/02/15 13:17:53;;;;;;;;;;;14.70;99.90;;;;;;5032452;28;19921;-64
2024/02/15 13:20:29;;;;;;;;;;;14.80;99.90;;;;;;5032026;28;19921;-64
2024/02/15 13:23:00;;;;;;;;;;;14.70;99.90;;;;;;5014735;28;20003;-64
2024/02/15 13:25:32;;;;;;;;;;;14.70;99.90;;;;;;5029660;28;19925;-64
2024/02/15 13:28:04;;;;;;;;;;;14.60;99.90;;;;;;5032331;28;20480;-64
2024/02/15 13:30:36;;;;;;;;;;;14.60;99.90;;;;;;5032219;28;19921;-64
2024/02/15 13:33:08;;;;;;;;;;;14.60;99.90;;;;;;5015431;28;19931;-64
2024/02/15 13:35:39;;;;;;;;;;;14.60;99.90;;;;;;5031749;28;20445;-64
2024/02/15 13:38:08;;;;;;;;;;;14.60;99.90;;;;;;5032136;28;19921;-64
2024/02/15 13:40:35;;;;;;;;;;;14.60;99.90;;;;;;5032091;28;19967;-64
2024/02/15 13:43:07;;;;;;;;;;;14.60;99.90;;;;;;5032131;28;20296;-64
2024/02/15 13:45:39;;;;;;;;;;;14.70;99.90;;;;;;5014272;28;19953;-64
2024/02/15 13:48:16;;;;;;;;;;;14.70;99.90;;;;;;5031937;28;20004;-64
2024/02/15 13:50:52;;;;;;;;;;;14.80;99.90;;;;;;5011925;28;19956;-64
2024/02/15 13:53:25;;;;;;;;;;;14.80;99.90;;;;;;5031471;28;19975;-64
2024/02/15 13:55:56;;;;;;;;;;;14.90;99.90;;;;;;5013080;28;19921;-64
2024/02/15 13:58:28;;;;;;;;;;;14.90;99.90;;;;;;5029306;28;19928;-64
2024/02/15 14:01:03;;;;;;;;;;;15.00;99.90;;;;;;5030182;28;19929;-64
2024/02/15 14:03:34;;;;;;;;;;;15.00;99.90;;;;;;5030572;28;19925;-64
2024/02/15 14:06:01;;;;;;;;;;;15.00;99.90;;;;;;5028634;28;20007;-64
2024/02/15 14:08:33;;;;;;;;;;;15.00;99.90;;;;;;5030431;28;20024;-64
2024/02/15 14:11:05;;;;;;;;;;;15.00;99.90;;;;;;5031466;28;19927;-64
2024/02/15 14:13:32;;;;;;;;;;;15.00;99.90;;;;;;5029837;28;20030;-64
2024/02/15 14:15:59;;;;;;;;;;;15.00;99.90;;;;;;5031299;28;19986;-64
2024/02/15 14:18:31;;;;;;;;;;;14.90;99.90;;;;;;5030907;28;19927;-64
2024/02/15 14:21:03;;;;;;;;;;;14.90;99.90;;;;;;5029629;28;19979;-64
2024/02/15 14:23:35;;;;;;;;;;;14.90;99.90;;;;;;5030012;28;19921;-64
2024/02/15 14:26:07;;;;;;;;;;;14.90;99.90;;;;;;5028042;28;20015;-64
2024/02/15 14:28:41;;;;;;;;;;;15.00;99.90;;;;;;5020198;28;20300;-64
2024/02/15 14:34:07;;;;;;;;;;;15.00;99.90;;;;;;5030687;28;20297;-64
2024/02/15 14:36:36;;;;;;;;;;;15.00;99.90;;;;;;5030865;28;19925;-64
2024/02/15 14:39:04;;;;;;;;;;;14.90;99.90;;;;;;5031195;28;20396;-64
2024/02/15 14:41:37;;;;;;;;;;;14.90;99.90;;;;;;5030969;28;20424;-64
2024/02/15 14:44:05;;;;;;;;;;;14.80;99.90;;;;;;5031079;28;20302;-64
2024/02/15 14:46:37;;;;;;;;;;;14.80;99.90;;;;;;5030747;28;19924;-64
2024/02/15 14:49:09;;;;;;;;;;;14.70;99.90;;;;;;5013419;28;20012;-64
2024/02/15 14:51:41;;;;;;;;;;;14.60;99.90;;;;;;5029988;28;19928;-64
2024/02/15 14:54:14;;;;;;;;;;;14.50;99.90;;;;;;5030881;28;19924;-65
2024/02/15 14:56:42;;;;;;;;;;;14.40;99.90;;;;;;5030808;28;20371;-64
2024/02/15 14:59:15;;;;;;;;;;;14.40;99.90;;;;;;5028657;28;19925;-64
2024/02/15 15:01:46;;;;;;;;;;;14.30;99.90;;;;;;5031068;28;19928;-64
2024/02/15 15:04:18;;;;;;;;;;;14.30;99.90;;;;;;5013271;28;19925;-64
2024/02/15 15:12:41;;;;;;;;;;;14.10;99.90;;;;;;5030023;28;19928;-64
2024/02/15 15:15:08;;;;;;;;;;;14.10;99.90;;;;;;5023468;28;20012;-64
2024/02/15 15:17:40;;;;;;;;;;;14.00;99.90;;;;;;5029110;28;20026;-64
2024/02/15 15:20:08;;;;;;;;;;;14.00;99.90;;;;;;5030747;28;19967;-64
2024/02/15 15:22:40;;;;;;;;;;;14.00;99.90;;;;;;5008937;28;20014;-64
2024/02/15 15:25:12;;;;;;;;;;;13.90;99.90;;;;;;5030688;28;19932;-64
2024/02/15 15:27:44;;;;;;;;;;;13.80;99.90;;;;;;5012345;28;19925;-64
2024/02/15 15:30:11;;;;;;;;;;;13.80;99.90;;;;;;5030768;28;20033;-64
2024/02/15 15:32:39;;;;;;;;;;;13.70;99.90;;;;;;5030831;28;19921;-64